Time;durP1;ratioP1;P1;durP2;ratioP2;P2;SDS_P1;SDS_P2;PMS_P1;PMS_P2;Temp;Humidity;BMP_temperature;BMP_pressure;BME280_temperature;BME280_humidity;BME280_pressure;Samples;Min_cycle;Max_cycle;Signal;HPM_P1;HPM_P2
2022/11/17 00:01:08;;;;;;;1.30;1.20;;;23.00;45.30;;;;;;7714705;22;80147;-56
2022/11/17 00:04:09;;;;;;;1.77;1.13;;;23.00;45.30;;;;;;7714562;22;81542;-55
2022/11/17 00:07:09;;;;;;;0.90;0.90;;;23.10;45.30;;;;;;7716347;22;80885;-55
2022/11/17 00:10:09;;;;;;;1.23;1.13;;;23.00;45.30;;;;;;7714629;22;80176;-56
2022/11/17 00:16:29;;;;;;;1.27;1.00;;;23.00;45.40;;;;;;7714518;22;80484;-55
2022/11/17 00:22:49;;;;;;;2.25;1.20;;;23.00;45.20;;;;;;7688028;22;81225;-55
2022/11/17 00:25:50;;;;;;;1.00;0.90;;;23.00;45.30;;;;;;7714460;22;80177;-52
2022/11/17 00:28:50;;;;;;;0.93;0.70;;;23.00;45.40;;;;;;7715960;22;80422;-53
2022/11/17 00:35:10;;;;;;;0.95;0.90;;;23.00;45.10;;;;;;7716806;22;80006;-52
2022/11/17 00:38:17;;;;;;;0.98;0.95;;;22.90;45.10;;;;;;7716647;22;80332;-53
2022/11/17 00:56:05;;;;;;;0.70;0.70;;;22.90;45.00;;;;;;7705551;22;81637;-56
2022/11/17 00:59:06;;;;;;;1.00;0.90;;;22.90;44.90;;;;;;7715250;22;80425;-56
2022/11/17 01:02:06;;;;;;;0.98;0.80;;;22.90;45.00;;;;;;7717318;22;81846;-56
2022/11/17 01:05:07;;;;;;;0.85;0.85;;;22.90;44.90;;;;;;7715531;22;81412;-55
2022/11/17 01:08:07;;;;;;;1.15;1.05;;;22.90;45.00;;;;;;7715154;22;80810;-55
2022/11/17 01:11:08;;;;;;;1.02;1.00;;;22.90;45.00;;;;;;7718013;22;80393;-54
2022/11/17 01:14:08;;;;;;;1.10;1.00;;;22.90;44.90;;;;;;7715499;22;80311;-55
2022/11/17 01:17:09;;;;;;;1.23;0.82;;;22.90;45.00;;;;;;7714868;22;80571;-54
2022/11/17 01:20:09;;;;;;;1.08;0.88;;;22.90;45.00;;;;;;7717907;22;80330;-48
2022/11/17 01:23:10;;;;;;;0.73;0.73;;;22.90;44.90;;;;;;7714381;22;81632;-52
2022/11/17 01:26:10;;;;;;;1.88;1.20;;;22.90;45.00;;;;;;7716878;22;81177;-50
2022/11/17 01:29:11;;;;;;;0.85;0.82;;;22.90;45.00;;;;;;7715854;22;80578;-53
2022/11/17 01:32:11;;;;;;;0.80;0.80;;;22.90;45.00;;;;;;7717974;22;80948;-54
2022/11/17 01:35:12;;;;;;;1.13;0.75;;;22.90;44.90;;;;;;7714961;22;81480;-53
2022/11/17 01:38:12;;;;;;;0.70;0.70;;;22.90;45.00;;;;;;7713978;22;80058;-55
2022/11/17 01:41:13;;;;;;;1.05;0.90;;;22.90;45.10;;;;;;7713806;22;81050;-54
2022/11/17 01:44:13;;;;;;;0.98;0.95;;;22.90;45.10;;;;;;7710226;22;80011;-53
2022/11/17 01:47:14;;;;;;;0.70;0.70;;;22.90;45.10;;;;;;7711263;22;80910;-55
2022/11/17 01:50:14;;;;;;;0.85;0.85;;;22.90;45.10;;;;;;7712697;22;80391;-53
2022/11/17 01:53:15;;;;;;;0.70;0.70;;;22.90;45.00;;;;;;7711544;22;80771;-53
2022/11/17 01:56:15;;;;;;;0.70;0.70;;;22.90;45.00;;;;;;7714350;22;81077;-54
2022/11/17 01:59:16;;;;;;;1.05;0.95;;;22.90;45.00;;;;;;7714653;22;81061;-54
2022/11/17 02:02:16;;;;;;;1.25;1.00;;;22.80;44.80;;;;;;7712317;22;80165;-53
2022/11/17 02:05:17;;;;;;;0.95;0.93;;;22.90;44.80;;;;;;7712989;22;82915;-54
2022/11/17 02:08:18;;;;;;;0.70;0.70;;;22.90;45.00;;;;;;7710471;22;82335;-56
2022/11/17 02:11:18;;;;;;;1.40;1.02;;;22.80;44.90;;;;;;7712194;22;80269;-57
2022/11/17 02:14:19;;;;;;;0.80;0.80;;;22.90;45.30;;;;;;7711568;22;80756;-56
2022/11/17 02:17:20;;;;;;;0.75;0.75;;;22.90;45.10;;;;;;7712488;22;80686;-56
2022/11/17 02:20:20;;;;;;;0.70;0.70;;;22.90;45.00;;;;;;7714812;22;79980;-55
2022/11/17 02:23:21;;;;;;;0.75;0.60;;;22.80;45.00;;;;;;7715033;22;81575;-57
2022/11/17 02:26:21;;;;;;;0.80;0.80;;;22.80;44.90;;;;;;7716619;22;80692;-58
2022/11/17 02:29:22;;;;;;;1.05;0.80;;;22.80;45.00;;;;;;7714470;22;80202;-58
2022/11/17 02:32:22;;;;;;;0.57;0.57;;;22.80;45.00;;;;;;7686996;22;80793;-58
2022/11/17 02:35:23;;;;;;;0.73;0.70;;;22.80;44.90;;;;;;7712883;22;80300;-57
2022/11/17 02:38:23;;;;;;;0.68;0.68;;;22.80;44.80;;;;;;7717502;22;80488;-58
2022/11/17 02:41:24;;;;;;;1.33;0.90;;;22.80;44.90;;;;;;7716864;22;80829;-58
2022/11/17 02:44:24;;;;;;;0.80;0.80;;;22.80;44.90;;;;;;7713449;22;80770;-56
2022/11/17 02:47:25;;;;;;;0.60;0.60;;;22.80;44.80;;;;;;7714347;22;80517;-58
2022/11/17 02:50:25;;;;;;;0.77;0.65;;;22.80;44.80;;;;;;7714936;22;82405;-57
2022/11/17 02:53:26;;;;;;;1.10;0.85;;;22.80;44.90;;;;;;7714507;22;81061;-59
2022/11/17 02:56:26;;;;;;;0.80;0.80;;;22.80;44.90;;;;;;7713005;22;80174;-58
2022/11/17 02:59:27;;;;;;;0.73;0.60;;;22.80;44.90;;;;;;7715671;22;81163;-56
2022/11/17 03:02:27;;;;;;;0.60;0.60;;;22.80;45.00;;;;;;7713247;22;80272;-58
2022/11/17 03:05:28;;;;;;;0.70;0.70;;;22.80;45.00;;;;;;7715333;22;81501;-58
2022/11/17 03:08:29;;;;;;;0.60;0.60;;;22.80;44.70;;;;;;7715402;22;80357;-58
2022/11/17 03:11:29;;;;;;;0.70;0.70;;;22.80;44.80;;;;;;7712570;22;80134;-57
2022/11/17 03:14:30;;;;;;;0.77;0.77;;;22.80;44.80;;;;;;7711168;22;81655;-57
2022/11/17 03:17:31;;;;;;;0.60;0.60;;;22.80;45.00;;;;;;7714016;22;80293;-57
2022/11/17 03:20:31;;;;;;;0.50;0.50;;;22.80;44.70;;;;;;7714034;22;81762;-58
2022/11/17 03:23:32;;;;;;;0.60;0.60;;;22.80;44.80;;;;;;7716475;22;81144;-54
2022/11/17 03:26:33;;;;;;;0.70;0.70;;;22.80;44.60;;;;;;7718516;22;80398;-56
2022/11/17 03:29:33;;;;;;;0.60;0.60;;;22.80;44.60;;;;;;7715702;22;81583;-56
2022/11/17 03:32:34;;;;;;;0.75;0.75;;;22.80;44.70;;;;;;7715097;22;80205;-56
2022/11/17 03:35:34;;;;;;;0.70;0.70;;;22.80;44.70;;;;;;7718512;22;80177;-55
2022/11/17 03:38:35;;;;;;;0.75;0.73;;;22.80;44.80;;;;;;7714317;22;80757;-57
2022/11/17 03:41:35;;;;;;;0.80;0.80;;;22.80;44.70;;;;;;7716496;22;81537;-57
2022/11/17 03:44:36;;;;;;;0.60;0.60;;;22.80;44.70;;;;;;7715404;22;80855;-56
2022/11/17 03:47:36;;;;;;;0.63;0.63;;;22.80;44.60;;;;;;7715551;22;80048;-55
2022/11/17 03:50:37;;;;;;;0.70;0.70;;;22.80;44.60;;;;;;7690004;22;81401;-55
2022/11/17 03:53:37;;;;;;;0.60;0.60;;;22.80;44.60;;;;;;7717015;22;80776;-56
2022/11/17 03:56:38;;;;;;;0.80;0.80;;;22.80;44.60;;;;;;7715019;22;80915;-56
2022/11/17 03:59:38;;;;;;;0.50;0.50;;;22.80;44.60;;;;;;7717437;22;81758;-54
2022/11/17 04:02:39;;;;;;;0.60;0.60;;;22.80;44.60;;;;;;7715207;22;80480;-55
2022/11/17 04:05:39;;;;;;;0.50;0.50;;;22.70;44.40;;;;;;7716614;22;81703;-57
2022/11/17 04:08:40;;;;;;;0.60;0.60;;;22.80;44.70;;;;;;7687678;22;81364;-56
2022/11/17 04:18:18;;;;;;;0.60;0.60;;;22.90;44.50;;;;;;7717627;22;80873;-56
2022/11/17 04:21:19;;;;;;;0.52;0.52;;;22.90;44.30;;;;;;7714175;22;80279;-57
2022/11/17 04:24:19;;;;;;;0.60;0.60;;;22.90;44.20;;;;;;7715378;22;80741;-57
2022/11/17 04:30:39;;;;;;;0.70;0.70;;;23.00;43.90;;;;;;7715615;22;80382;-57
2022/11/17 04:33:40;;;;;;;0.60;0.60;;;23.10;43.80;;;;;;7716239;22;80789;-57
2022/11/17 04:36:43;;;;;;;0.95;0.70;;;23.10;43.90;;;;;;7717730;22;80977;-55
2022/11/17 04:39:44;;;;;;;0.70;0.70;;;23.10;43.70;;;;;;7712786;22;80384;-58
2022/11/17 04:42:45;;;;;;;0.60;0.60;;;23.20;43.70;;;;;;7709672;22;80487;-56
2022/11/17 04:45:45;;;;;;;1.83;0.60;;;23.20;43.70;;;;;;7714872;22;80237;-58
2022/11/17 04:48:46;;;;;;;1.45;0.68;;;23.20;43.60;;;;;;7716165;22;81499;-58
2022/11/17 04:51:47;;;;;;;0.82;0.80;;;23.30;43.60;;;;;;7715843;22;80785;-57
2022/11/17 04:54:47;;;;;;;1.08;0.60;;;23.30;43.30;;;;;;7714349;22;81245;-57
2022/11/17 04:57:48;;;;;;;0.63;0.63;;;23.40;43.60;;;;;;7715961;22;80870;-58
2022/11/17 05:00:48;;;;;;;0.75;0.75;;;23.40;43.40;;;;;;7712552;22;81023;-57
2022/11/17 05:03:49;;;;;;;0.60;0.60;;;23.40;43.70;;;;;;7712168;22;80769;-56
2022/11/17 05:06:49;;;;;;;2.53;0.75;;;23.40;43.70;;;;;;7716284;22;81783;-55
2022/11/17 05:09:50;;;;;;;1.05;0.70;;;23.40;43.60;;;;;;7714479;22;80752;-53
2022/11/17 05:19:29;;;;;;;0.77;0.60;;;23.50;44.50;;;;;;7716221;22;80464;-54
2022/11/17 05:32:13;;;;;;;0.68;0.60;;;23.60;44.80;;;;;;7698791;22;80830;-55
2022/11/17 05:35:13;;;;;;;0.70;0.70;;;23.60;44.80;;;;;;7676124;22;80680;-56
2022/11/17 05:38:13;;;;;;;0.82;0.70;;;23.60;45.00;;;;;;7676178;22;80810;-56
2022/11/17 05:41:14;;;;;;;1.40;0.93;;;23.60;45.00;;;;;;7677213;22;80655;-54
2022/11/17 05:44:14;;;;;;;0.70;0.70;;;23.60;44.80;;;;;;7676012;22;80256;-56
2022/11/17 05:47:15;;;;;;;1.30;0.75;;;23.60;44.40;;;;;;7677067;22;80504;-57
2022/11/17 05:50:18;;;;;;;0.77;0.77;;;23.60;44.30;;;;;;7678917;22;80358;-53
2022/11/17 05:53:18;;;;;;;0.73;0.60;;;23.70;44.20;;;;;;7676884;22;81037;-58
2022/11/17 05:56:18;;;;;;;1.80;0.70;;;23.70;44.30;;;;;;7677500;22;80041;-57
2022/11/17 05:59:19;;;;;;;8.40;1.25;;;23.70;44.20;;;;;;7678107;22;81754;-56
2022/11/17 06:02:19;;;;;;;0.50;0.50;;;23.70;43.90;;;;;;7669701;22;80947;-60
2022/11/17 06:05:22;;;;;;;2.85;0.70;;;23.60;43.70;;;;;;7672792;22;80673;-59
2022/11/17 06:08:23;;;;;;;2.05;0.70;;;23.70;43.40;;;;;;7666161;22;81800;-53
2022/11/17 06:11:23;;;;;;;0.80;0.80;;;23.60;43.40;;;;;;7674143;22;80221;-55
2022/11/17 06:14:24;;;;;;;4.57;0.80;;;23.70;43.40;;;;;;7673005;22;80574;-56
2022/11/17 06:17:24;;;;;;;1.08;0.60;;;23.60;43.10;;;;;;7678364;22;80273;-57
2022/11/17 06:20:25;;;;;;;1.80;0.70;;;23.60;42.90;;;;;;7674921;22;80306;-54
2022/11/17 06:23:25;;;;;;;2.75;0.70;;;23.60;43.50;;;;;;7673327;22;80790;-55
2022/11/17 06:26:26;;;;;;;0.70;0.70;;;23.60;42.90;;;;;;7674494;22;80652;-52
2022/11/17 06:29:26;;;;;;;1.80;0.85;;;23.60;42.80;;;;;;7671322;22;80581;-55
2022/11/17 06:32:27;;;;;;;1.17;0.73;;;23.60;42.80;;;;;;7672306;22;80859;-56
2022/11/17 06:35:32;;;;;;;2.72;0.65;;;23.60;42.80;;;;;;7675651;22;80291;-55
2022/11/17 06:38:34;;;;;;;0.65;0.65;;;23.50;42.70;;;;;;7670561;22;81415;-55
2022/11/17 06:41:35;;;;;;;0.82;0.82;;;23.50;42.40;;;;;;7675071;22;80378;-53
2022/11/17 06:44:35;;;;;;;1.75;0.70;;;23.50;42.50;;;;;;7675391;22;81330;-57
2022/11/17 06:47:36;;;;;;;0.80;0.60;;;23.50;42.40;;;;;;7671734;22;82737;-58
2022/11/17 06:50:36;;;;;;;0.77;0.77;;;23.40;42.30;;;;;;7675317;22;81203;-58
2022/11/17 06:53:37;;;;;;;0.60;0.60;;;23.40;42.30;;;;;;7677516;22;81758;-58
2022/11/17 06:56:37;;;;;;;0.80;0.70;;;23.30;42.40;;;;;;7677177;22;80992;-58
2022/11/17 06:59:38;;;;;;;0.93;0.80;;;23.30;42.50;;;;;;7676559;22;80696;-58
2022/11/17 07:02:38;;;;;;;1.40;1.00;;;23.30;43.00;;;;;;7678407;22;80395;-58
2022/11/17 07:05:39;;;;;;;0.57;0.57;;;23.20;42.50;;;;;;7678704;22;80320;-58
2022/11/17 07:08:39;;;;;;;0.70;0.70;;;23.30;42.70;;;;;;7669417;22;81032;-58
2022/11/17 07:11:40;;;;;;;1.70;0.60;;;23.30;42.80;;;;;;7648085;22;81224;-57
2022/11/17 07:14:40;;;;;;;2.83;0.90;;;23.20;42.80;;;;;;7663439;22;81530;-56
2022/11/17 07:17:41;;;;;;;0.75;0.68;;;23.20;42.90;;;;;;7670819;22;80353;-57
2022/11/17 07:20:41;;;;;;;1.00;0.70;;;23.20;42.90;;;;;;7669829;22;80922;-55
2022/11/17 07:23:43;;;;;;;1.00;0.70;;;23.10;43.00;;;;;;7672994;22;81565;-53
2022/11/17 07:26:44;;;;;;;1.77;0.82;;;23.10;42.90;;;;;;7673400;22;80361;-57
2022/11/17 07:29:44;;;;;;;4.28;0.80;;;23.00;42.30;;;;;;7676903;22;80302;-56
2022/11/17 07:32:45;;;;;;;0.70;0.70;;;22.90;41.80;;;;;;7696595;22;80506;-53
2022/11/17 07:35:45;;;;;;;1.33;0.80;;;22.90;41.70;;;;;;7716604;22;81432;-54
2022/11/17 07:38:46;;;;;;;1.08;0.98;;;22.90;42.40;;;;;;7719011;22;84009;-56
2022/11/17 07:41:46;;;;;;;2.33;1.00;;;22.90;41.70;;;;;;7717407;22;80301;-59
2022/11/17 07:44:47;;;;;;;1.10;1.00;;;22.80;41.50;;;;;;7713056;22;81655;-59
2022/11/17 07:47:47;;;;;;;3.30;1.00;;;22.80;41.30;;;;;;7719435;22;80321;-58
2022/11/17 07:50:48;;;;;;;1.95;1.27;;;22.80;41.30;;;;;;7719774;22;80287;-56
2022/11/17 07:53:48;;;;;;;1.73;1.10;;;22.80;41.30;;;;;;7710972;22;80271;-54
2022/11/17 07:56:49;;;;;;;0.88;0.88;;;22.80;41.20;;;;;;7706488;22;80916;-57
2022/11/17 07:59:49;;;;;;;1.80;1.05;;;22.80;41.40;;;;;;7690377;22;80382;-57
2022/11/17 08:02:50;;;;;;;0.90;0.90;;;22.80;41.40;;;;;;7716204;22;81587;-57
2022/11/17 08:05:52;;;;;;;1.08;0.90;;;22.80;41.30;;;;;;7718016;22;80221;-58
2022/11/17 08:08:53;;;;;;;2.00;0.90;;;22.80;41.30;;;;;;7718762;22;80145;-57
2022/11/17 08:11:53;;;;;;;0.90;0.90;;;22.70;41.20;;;;;;7714904;22;80261;-58
2022/11/17 08:14:54;;;;;;;0.80;0.80;;;22.70;41.30;;;;;;7713955;22;80543;-59
2022/11/17 08:17:55;;;;;;;1.20;0.88;;;22.70;41.00;;;;;;7716265;22;81447;-59
2022/11/17 08:20:55;;;;;;;1.00;1.00;;;22.70;41.20;;;;;;7719576;22;80588;-58
2022/11/17 08:23:55;;;;;;;0.80;0.80;;;22.70;41.20;;;;;;7715750;22;80353;-58
2022/11/17 08:26:56;;;;;;;0.80;0.80;;;22.70;41.20;;;;;;7717492;22;81537;-57
2022/11/17 08:29:57;;;;;;;1.10;1.00;;;22.70;41.10;;;;;;7720358;22;81886;-58
2022/11/17 08:32:57;;;;;;;1.02;0.70;;;22.70;41.10;;;;;;7716562;22;80344;-57
2022/11/17 08:35:58;;;;;;;1.15;1.02;;;22.70;41.00;;;;;;7708769;22;81677;-57
2022/11/17 08:38:58;;;;;;;2.20;0.80;;;22.70;40.60;;;;;;7708322;22;80020;-58
2022/11/17 08:41:59;;;;;;;1.17;0.80;;;22.80;40.80;;;;;;7707445;22;81636;-58
2022/11/17 08:44:59;;;;;;;1.05;1.00;;;22.80;40.50;;;;;;7708141;22;80700;-58
2022/11/17 08:48:00;;;;;;;0.80;0.80;;;22.80;40.40;;;;;;7711976;22;80784;-57
2022/11/17 08:51:00;;;;;;;1.20;1.08;;;22.90;40.20;;;;;;7688721;22;80437;-57
2022/11/17 08:54:01;;;;;;;0.85;0.80;;;22.90;40.00;;;;;;7717919;22;82260;-58
2022/11/17 08:57:01;;;;;;;1.13;1.02;;;23.00;39.90;;;;;;7715558;22;81012;-56
2022/11/17 09:00:02;;;;;;;1.38;1.00;;;23.00;39.80;;;;;;7715231;22;80963;-59
2022/11/17 09:03:02;;;;;;;1.15;0.98;;;23.10;39.80;;;;;;7717552;22;80298;-58
2022/11/17 09:06:03;;;;;;;0.93;0.93;;;23.10;39.60;;;;;;7717541;22;80042;-56
2022/11/17 09:09:03;;;;;;;1.58;1.10;;;23.10;39.70;;;;;;7712857;22;80103;-57
2022/11/17 09:12:04;;;;;;;1.42;1.30;;;23.10;39.50;;;;;;7715300;22;80394;-59
2022/11/17 09:15:04;;;;;;;2.17;1.42;;;23.20;39.60;;;;;;7717157;22;80714;-57
2022/11/17 09:18:05;;;;;;;1.88;1.02;;;23.20;39.50;;;;;;7716897;22;80239;-58
2022/11/17 09:21:05;;;;;;;1.48;1.08;;;23.20;39.40;;;;;;7708413;22;80302;-57
2022/11/17 09:24:06;;;;;;;1.48;0.80;;;23.20;39.40;;;;;;7713863;22;82645;-57
2022/11/17 09:27:07;;;;;;;1.67;1.00;;;23.20;39.20;;;;;;7711315;22;81617;-56
2022/11/17 09:30:07;;;;;;;2.33;1.08;;;23.20;39.20;;;;;;7711881;22;82066;-54
2022/11/17 09:33:08;;;;;;;1.23;0.88;;;23.20;39.20;;;;;;7714198;22;80464;-52
2022/11/17 09:36:08;;;;;;;1.67;1.08;;;23.30;39.10;;;;;;7709607;22;80609;-54
2022/11/17 09:39:09;;;;;;;3.75;1.00;;;23.30;39.10;;;;;;7710265;22;80856;-54
2022/11/17 09:42:09;;;;;;;3.40;1.50;;;23.20;39.00;;;;;;7716482;22;81279;-53
2022/11/17 09:45:10;;;;;;;0.98;0.98;;;23.30;38.90;;;;;;7718627;22;80979;-52
2022/11/17 09:48:10;;;;;;;1.83;1.08;;;23.30;39.00;;;;;;7714235;22;80617;-53
2022/11/17 09:51:11;;;;;;;1.20;1.10;;;23.30;39.40;;;;;;7719071;22;80974;-54
2022/11/17 09:54:11;;;;;;;1.15;1.00;;;23.30;38.70;;;;;;7712981;22;81128;-52
2022/11/17 09:57:12;;;;;;;2.05;1.10;;;23.30;38.70;;;;;;7717409;22;81288;-54
2022/11/17 10:00:13;;;;;;;1.27;1.05;;;23.30;38.80;;;;;;7718106;22;80249;-54
2022/11/17 10:03:14;;;;;;;1.13;1.02;;;23.30;38.80;;;;;;7718384;22;81162;-54
2022/11/17 10:06:14;;;;;;;1.00;0.90;;;23.20;38.90;;;;;;7716664;22;81922;-54
2022/11/17 10:09:15;;;;;;;1.40;1.30;;;23.20;38.90;;;;;;7712985;22;80026;-51
2022/11/17 10:12:15;;;;;;;2.70;1.08;;;23.10;38.90;;;;;;7717441;22;80241;-54
2022/11/17 10:15:16;;;;;;;1.10;1.00;;;23.10;38.70;;;;;;7717486;22;87759;-53
2022/11/17 10:18:16;;;;;;;2.80;1.05;;;23.10;38.90;;;;;;7715859;22;80341;-53
2022/11/17 10:21:17;;;;;;;0.70;0.70;;;23.10;38.80;;;;;;7710247;22;81386;-51
2022/11/17 10:24:17;;;;;;;1.63;1.20;;;23.00;39.10;;;;;;7717319;22;80461;-53
2022/11/17 10:27:18;;;;;;;1.17;1.00;;;23.00;39.00;;;;;;7715689;22;80523;-54
2022/11/17 10:30:18;;;;;;;1.30;1.20;;;23.00;38.90;;;;;;7716664;22;80165;-55
2022/11/17 10:33:19;;;;;;;0.88;0.88;;;22.90;39.70;;;;;;7715080;22;80169;-54
2022/11/17 10:36:19;;;;;;;1.33;1.00;;;22.90;40.00;;;;;;7715426;22;80228;-53
2022/11/17 10:39:20;;;;;;;1.67;1.20;;;22.90;40.50;;;;;;7713648;22;81353;-54
2022/11/17 10:42:20;;;;;;;1.42;1.20;;;22.90;40.90;;;;;;7712942;22;81532;-56
2022/11/17 10:45:21;;;;;;;1.05;0.90;;;22.90;41.30;;;;;;7716575;22;81078;-56
2022/11/17 10:48:21;;;;;;;1.13;1.02;;;22.80;41.40;;;;;;7714684;22;80526;-55
2022/11/17 10:51:22;;;;;;;2.38;1.40;;;22.80;41.70;;;;;;7713244;22;80477;-57
2022/11/17 10:54:22;;;;;;;1.50;1.25;;;22.80;41.90;;;;;;7715695;22;80267;-55
2022/11/17 10:57:23;;;;;;;2.70;1.30;;;22.80;42.10;;;;;;7710508;22;80395;-55
2022/11/17 11:00:23;;;;;;;5.57;1.40;;;22.70;42.20;;;;;;7713327;22;80829;-56
2022/11/17 11:03:24;;;;;;;1.08;0.98;;;22.70;42.40;;;;;;7716761;22;80181;-57
2022/11/17 11:06:25;;;;;;;1.48;0.98;;;22.70;42.50;;;;;;7708453;22;80364;-56
2022/11/17 11:09:26;;;;;;;1.48;1.30;;;22.60;42.60;;;;;;7713823;22;80014;-56
2022/11/17 11:12:26;;;;;;;1.30;1.20;;;22.60;42.70;;;;;;7717061;22;80930;-55
2022/11/17 11:15:27;;;;;;;1.13;1.02;;;22.60;42.70;;;;;;7712328;22;81220;-56
2022/11/17 11:18:27;;;;;;;1.40;1.30;;;22.60;42.80;;;;;;7717758;22;80818;-57
2022/11/17 11:21:28;;;;;;;1.20;1.10;;;22.60;42.90;;;;;;7712181;22;80410;-56
2022/11/17 11:24:28;;;;;;;1.00;1.00;;;22.50;42.90;;;;;;7685640;22;80253;-55
2022/11/17 11:27:28;;;;;;;1.95;1.40;;;22.50;42.90;;;;;;7716827;22;80276;-54
2022/11/17 11:30:29;;;;;;;1.92;1.27;;;22.50;43.00;;;;;;7713280;22;80390;-55
2022/11/17 11:33:30;;;;;;;1.88;1.30;;;22.50;43.00;;;;;;7717122;22;80386;-54
2022/11/17 11:36:30;;;;;;;1.73;1.20;;;22.50;43.00;;;;;;7713106;22;80933;-56
2022/11/17 11:39:30;;;;;;;1.25;1.15;;;22.50;42.90;;;;;;7715677;22;80567;-56
2022/11/17 11:42:31;;;;;;;1.55;1.23;;;22.50;42.80;;;;;;7716719;22;81163;-55
2022/11/17 11:45:31;;;;;;;1.90;1.58;;;22.50;42.90;;;;;;7716050;22;80421;-53
2022/11/17 11:48:35;;;;;;;1.38;1.27;;;22.50;43.10;;;;;;7712355;22;81287;-57
2022/11/17 11:51:35;;;;;;;1.38;1.27;;;22.50;43.20;;;;;;7718123;22;80371;-55
2022/11/17 11:54:36;;;;;;;1.30;1.10;;;22.60;43.20;;;;;;7719428;22;81610;-56
2022/11/17 11:57:36;;;;;;;1.60;1.27;;;22.60;43.00;;;;;;7715158;22;81837;-59
2022/11/17 12:00:37;;;;;;;1.30;1.20;;;22.60;43.00;;;;;;7719061;22;81410;-59
2022/11/17 12:03:37;;;;;;;1.00;0.90;;;22.60;42.80;;;;;;7714603;22;80214;-58
2022/11/17 12:06:41;;;;;;;2.58;1.58;;;22.70;42.70;;;;;;7717084;22;81540;-58
2022/11/17 12:09:41;;;;;;;1.70;1.30;;;22.70;42.60;;;;;;7690900;22;80597;-58
2022/11/17 12:12:42;;;;;;;1.60;1.23;;;22.70;42.50;;;;;;7718716;22;81773;-59
2022/11/17 12:15:42;;;;;;;2.83;1.40;;;22.70;42.50;;;;;;7689856;22;83273;-59
2022/11/17 12:18:43;;;;;;;2.40;1.65;;;22.80;42.40;;;;;;7714990;22;80489;-59
2022/11/17 12:21:43;;;;;;;1.38;1.25;;;22.80;42.20;;;;;;7717742;22;80196;-59
2022/11/17 12:24:44;;;;;;;1.85;1.30;;;22.80;42.00;;;;;;7710542;22;80309;-59
2022/11/17 12:27:44;;;;;;;1.85;1.42;;;22.90;42.00;;;;;;7716306;22;79895;-59
2022/11/17 12:30:45;;;;;;;1.55;1.38;;;22.90;41.90;;;;;;7715705;22;80286;-58
2022/11/17 12:33:45;;;;;;;1.52;1.27;;;22.90;41.70;;;;;;7710045;22;81400;-58
2022/11/17 12:36:46;;;;;;;2.15;1.70;;;22.90;41.60;;;;;;7719106;22;80369;-58
2022/11/17 12:39:46;;;;;;;2.08;1.45;;;22.90;41.50;;;;;;7714693;22;80481;-58
2022/11/17 12:42:47;;;;;;;2.00;1.65;;;22.90;41.40;;;;;;7718611;22;81428;-58
2022/11/17 12:45:47;;;;;;;2.28;1.80;;;22.90;41.40;;;;;;7716664;22;81584;-59
2022/11/17 12:48:48;;;;;;;2.17;1.77;;;23.00;41.50;;;;;;7713862;22;81353;-58
2022/11/17 12:51:48;;;;;;;1.60;1.40;;;23.00;41.20;;;;;;7720188;22;81516;-59
2022/11/17 12:54:48;;;;;;;1.85;1.40;;;23.00;41.20;;;;;;7713683;22;80623;-58
2022/11/17 12:57:49;;;;;;;1.70;1.60;;;23.00;41.10;;;;;;7709708;22;81080;-58
2022/11/17 13:00:51;;;;;;;2.60;1.60;;;23.00;41.00;;;;;;7677023;22;80378;-58
2022/11/17 13:03:52;;;;;;;3.03;1.73;;;23.00;40.80;;;;;;7708919;22;80421;-58
2022/11/17 13:06:52;;;;;;;1.73;1.48;;;23.00;40.70;;;;;;7708847;22;80211;-58
2022/11/17 13:09:53;;;;;;;2.55;1.63;;;23.10;40.70;;;;;;7715790;22;80531;-59
2022/11/17 13:12:53;;;;;;;1.95;1.70;;;23.10;40.60;;;;;;7709087;22;80501;-57
2022/11/17 13:15:54;;;;;;;2.33;1.70;;;23.00;40.50;;;;;;7707285;22;80275;-58
2022/11/17 13:18:55;;;;;;;1.80;1.63;;;23.10;40.50;;;;;;7714245;22;80520;-58
2022/11/17 13:21:55;;;;;;;1.77;1.35;;;23.10;40.50;;;;;;7714093;22;80558;-58
2022/11/17 13:24:56;;;;;;;1.55;1.45;;;23.10;40.40;;;;;;7716969;22;81829;-56
2022/11/17 13:27:57;;;;;;;2.70;1.85;;;23.10;40.30;;;;;;7716780;22;81580;-56
2022/11/17 13:30:57;;;;;;;3.15;1.77;;;23.10;40.20;;;;;;7709944;22;80870;-58
2022/11/17 13:33:58;;;;;;;2.00;1.75;;;23.10;40.20;;;;;;7717521;22;81028;-58
2022/11/17 13:36:58;;;;;;;2.03;1.70;;;23.10;40.10;;;;;;7714320;22;80745;-55
2022/11/17 13:39:59;;;;;;;3.95;2.58;;;23.00;39.80;;;;;;7717279;22;80559;-56
2022/11/17 13:42:59;;;;;;;2.03;1.70;;;23.00;40.10;;;;;;7717922;22;80336;-56
2022/11/17 13:46:02;;;;;;;1.65;1.35;;;23.10;40.60;;;;;;7713663;22;81631;-53
2022/11/17 13:49:03;;;;;;;3.70;1.80;;;23.10;40.70;;;;;;7718696;22;80368;-52
2022/11/17 13:52:03;;;;;;;2.05;1.63;;;23.10;40.80;;;;;;7689439;22;81482;-52
2022/11/17 13:55:04;;;;;;;2.40;1.88;;;23.10;40.80;;;;;;7708995;22;81875;-56
2022/11/17 13:58:04;;;;;;;1.92;1.58;;;23.10;40.70;;;;;;7712995;22;80257;-55
2022/11/17 14:01:05;;;;;;;2.50;2.05;;;23.10;40.80;;;;;;7709855;22;80241;-54
2022/11/17 14:04:05;;;;;;;2.22;1.55;;;23.10;40.80;;;;;;7716705;22;82023;-56
2022/11/17 14:07:06;;;;;;;1.50;1.40;;;23.10;40.70;;;;;;7716130;22;87042;-56
2022/11/17 14:10:06;;;;;;;1.98;1.73;;;23.10;40.80;;;;;;7716180;22;80405;-55
2022/11/17 14:13:07;;;;;;;3.83;1.98;;;23.10;40.80;;;;;;7717192;22;81182;-55
2022/11/17 14:16:07;;;;;;;1.80;1.70;;;23.10;40.70;;;;;;7712415;22;80389;-56
2022/11/17 14:19:08;;;;;;;1.80;1.70;;;23.10;40.80;;;;;;7716487;22;80611;-54
2022/11/17 14:22:08;;;;;;;3.33;1.63;;;23.00;40.70;;;;;;7716439;22;80119;-54
2022/11/17 14:25:09;;;;;;;1.80;1.60;;;23.00;40.80;;;;;;7712918;22;80614;-56
2022/11/17 14:28:09;;;;;;;1.58;1.48;;;23.00;40.80;;;;;;7709866;22;80296;-55
2022/11/17 14:31:10;;;;;;;1.95;1.70;;;23.00;40.70;;;;;;7709567;22;81390;-54
2022/11/17 14:34:10;;;;;;;2.80;2.13;;;23.00;40.80;;;;;;7716686;22;80495;-53
2022/11/17 14:37:11;;;;;;;1.88;1.70;;;23.00;40.80;;;;;;7710093;22;81192;-56
2022/11/17 14:40:11;;;;;;;2.22;1.50;;;22.90;40.80;;;;;;7717845;22;79883;-57
2022/11/17 14:43:12;;;;;;;2.92;2.40;;;22.80;40.00;;;;;;7716220;22;80352;-54
2022/11/17 14:46:12;;;;;;;2.65;2.00;;;22.70;39.30;;;;;;7716117;22;80585;-55
2022/11/17 14:49:13;;;;;;;2.95;1.98;;;22.60;38.90;;;;;;7716016;22;79948;-56
2022/11/17 14:52:13;;;;;;;2.88;2.30;;;22.40;38.70;;;;;;7701072;22;80738;-57
2022/11/17 14:55:14;;;;;;;2.60;2.00;;;22.30;38.60;;;;;;7707486;22;81137;-65
2022/11/17 14:58:14;;;;;;;5.22;2.47;;;22.20;38.70;;;;;;7705563;22;81111;-56
2022/11/17 15:01:14;;;;;;;11.32;4.38;;;22.10;38.60;;;;;;7711345;22;80148;-58
2022/11/17 15:04:15;;;;;;;20.08;4.03;;;22.10;39.40;;;;;;7701246;22;82197;-55
2022/11/17 15:07:15;;;;;;;14.00;4.18;;;22.30;39.80;;;;;;7714723;22;80853;-58
2022/11/17 15:10:16;;;;;;;13.02;4.30;;;22.30;40.20;;;;;;7711977;22;80700;-58
2022/11/17 15:13:16;;;;;;;13.15;4.80;;;22.40;40.90;;;;;;7694131;22;81700;-54
2022/11/17 15:16:17;;;;;;;19.45;5.60;;;22.40;41.20;;;;;;7698808;22;81843;-56
2022/11/17 15:19:18;;;;;;;22.83;5.70;;;22.50;41.30;;;;;;7709304;22;82080;-56
2022/11/17 15:22:18;;;;;;;22.85;5.65;;;22.60;41.50;;;;;;7711661;22;80412;-58
2022/11/17 15:25:19;;;;;;;20.27;4.97;;;22.60;41.70;;;;;;7706689;22;80608;-55
2022/11/17 15:28:19;;;;;;;20.60;5.40;;;22.60;41.80;;;;;;7715549;22;80024;-55
2022/11/17 15:31:20;;;;;;;12.73;4.13;;;22.60;42.60;;;;;;7707248;22;80329;-55
2022/11/17 15:34:20;;;;;;;11.77;4.28;;;22.60;42.10;;;;;;7700782;22;80573;-57
2022/11/17 15:37:21;;;;;;;14.57;4.45;;;22.60;42.30;;;;;;7700536;22;82201;-55
2022/11/17 15:40:22;;;;;;;11.93;3.70;;;22.70;42.10;;;;;;7702121;22;80584;-58
2022/11/17 15:43:22;;;;;;;9.48;4.35;;;22.70;42.20;;;;;;7675620;22;83201;-57
2022/11/17 15:46:23;;;;;;;11.00;4.00;;;22.70;42.20;;;;;;7696382;22;80791;-57
2022/11/17 15:49:23;;;;;;;15.25;4.10;;;22.70;42.00;;;;;;7702498;22;80940;-56
2022/11/17 15:52:24;;;;;;;11.95;4.32;;;22.70;42.10;;;;;;7712239;22;80580;-54
2022/11/17 15:55:24;;;;;;;14.85;3.70;;;22.80;41.90;;;;;;7713655;22;80644;-58
2022/11/17 15:58:25;;;;;;;7.55;3.80;;;22.70;41.80;;;;;;7712394;22;81016;-58
2022/11/17 16:01:25;;;;;;;9.07;4.40;;;22.70;42.00;;;;;;7704245;22;80310;-59
2022/11/17 16:04:26;;;;;;;22.05;4.78;;;22.70;41.70;;;;;;7708831;22;80623;-58
2022/11/17 16:07:26;;;;;;;11.60;4.05;;;22.70;42.10;;;;;;7710642;22;80432;-58
2022/11/17 16:10:27;;;;;;;10.27;4.30;;;22.70;41.90;;;;;;7715563;22;80994;-59
2022/11/17 16:13:27;;;;;;;9.02;3.08;;;22.80;42.30;;;;;;7715033;22;80764;-59
2022/11/17 16:16:28;;;;;;;11.18;3.00;;;22.70;41.90;;;;;;7717728;22;80493;-58
2022/11/17 16:19:29;;;;;;;11.38;3.17;;;22.70;41.80;;;;;;7711622;22;82544;-59
2022/11/17 16:22:30;;;;;;;5.63;3.17;;;22.70;41.60;;;;;;7692556;22;80990;-59
2022/11/17 16:25:30;;;;;;;8.10;3.75;;;22.60;41.60;;;;;;7714271;22;80287;-62
2022/11/17 16:28:31;;;;;;;8.52;3.28;;;22.60;41.60;;;;;;7677945;22;81172;-61